createdAt,value
2019-05-29T00:00:05.723Z,0
2019-05-29T00:01:08.847Z,0
2019-05-29T00:02:05.997Z,0
2019-05-29T00:03:06.124Z,0
2019-05-29T00:04:06.184Z,0
2019-05-29T00:05:05.975Z,0
2019-05-29T00:06:06.262Z,0
2019-05-29T00:07:06.088Z,0
2019-05-29T00:08:06.294Z,0
2019-05-29T00:09:06.005Z,0
2019-05-29T00:10:06.153Z,0
2019-05-29T00:11:06.019Z,0
2019-05-29T00:12:08.220Z,0
2019-05-29T00:13:06.794Z,0
2019-05-29T00:14:19.630Z,0
2019-05-29T00:15:06.927Z,0
2019-05-29T00:16:06.219Z,0
2019-05-29T00:17:06.362Z,0
2019-05-29T00:18:06.307Z,0
2019-05-29T00:19:06.933Z,0
2019-05-29T00:20:06.443Z,0
2019-05-29T00:21:06.391Z,0
2019-05-29T00:22:06.525Z,0
2019-05-29T00:23:06.663Z,0
2019-05-29T00:24:06.628Z,0
2019-05-29T00:25:06.744Z,0
2019-05-29T00:26:06.896Z,0
2019-05-29T00:27:07.371Z,0
2019-05-29T00:28:07.145Z,0
2019-05-29T00:29:07.501Z,0
2019-05-29T00:30:07.261Z,0
2019-05-29T00:31:07.693Z,0
2019-05-29T00:32:08.814Z,0
2019-05-29T00:33:09.993Z,0
2019-05-29T00:34:08.966Z,0
2019-05-29T00:35:08.207Z,0
2019-05-29T00:36:08.245Z,0
2019-05-29T00:37:08.488Z,0
2019-05-29T00:38:08.438Z,0
2019-05-29T00:39:08.623Z,0
2019-05-29T00:40:08.875Z,0
2019-05-29T00:41:08.783Z,0
2019-05-29T00:42:08.935Z,0
2019-05-29T00:43:09.139Z,0
2019-05-29T00:44:09.116Z,0
2019-05-29T00:45:09.802Z,0
2019-05-29T00:46:09.274Z,0
2019-05-29T00:47:09.436Z,0
2019-05-29T00:48:09.630Z,0
2019-05-29T00:49:09.695Z,0
2019-05-29T00:50:09.888Z,0
2019-05-29T00:51:09.155Z,0
2019-05-29T00:52:10.015Z,0
2019-05-29T00:53:10.123Z,0
2019-05-29T00:54:10.282Z,0
2019-05-29T00:55:10.469Z,0
2019-05-29T00:56:10.465Z,0
2019-05-29T00:57:10.779Z,0
2019-05-29T00:58:10.810Z,0
2019-05-29T00:59:11.046Z,0
2019-05-29T01:00:11.069Z,0
2019-05-29T01:01:11.265Z,0
2019-05-29T01:02:11.760Z,0
2019-05-29T01:03:11.608Z,0
2019-05-29T01:04:11.484Z,0
2019-05-29T01:05:11.966Z,0
2019-05-29T01:06:11.931Z,0
2019-05-29T01:07:12.270Z,0
2019-05-29T01:08:10.798Z,0
2019-05-29T01:09:10.924Z,0
2019-05-29T01:10:11.078Z,0
2019-05-29T01:11:12.605Z,0
2019-05-29T01:12:11.231Z,0
2019-05-29T01:13:11.234Z,0
2019-05-29T01:14:11.274Z,0
2019-05-29T01:15:11.285Z,0
2019-05-29T01:16:11.389Z,0
2019-05-29T01:17:12.156Z,0
2019-05-29T01:18:11.746Z,0
2019-05-29T01:19:11.864Z,0
2019-05-29T01:20:11.964Z,0
2019-05-29T01:21:12.000Z,0
2019-05-29T01:22:12.306Z,0
2019-05-29T01:23:12.238Z,0
2019-05-29T01:24:12.415Z,0
2019-05-29T01:25:14.427Z,0
2019-05-29T01:26:12.619Z,0
2019-05-29T01:27:12.761Z,0
2019-05-29T01:28:12.780Z,0
2019-05-29T01:29:12.939Z,0
2019-05-29T01:30:13.123Z,0
2019-05-29T01:31:13.524Z,0
2019-05-29T01:32:13.422Z,0
2019-05-29T01:33:16.794Z,0
2019-05-29T01:34:14.253Z,0
2019-05-29T01:35:14.360Z,0
2019-05-29T01:36:14.464Z,0
2019-05-29T01:37:13.965Z,0
2019-05-29T01:38:13.606Z,0
2019-05-29T01:39:13.614Z,0
2019-05-29T01:40:19.773Z,0
2019-05-29T01:41:13.819Z,0
2019-05-29T01:42:15.215Z,0
2019-05-29T01:43:15.248Z,0
2019-05-29T01:44:15.351Z,0
2019-05-29T01:45:15.385Z,0
2019-05-29T01:46:15.198Z,0
2019-05-29T01:47:15.481Z,0
2019-05-29T01:48:15.363Z,0
2019-05-29T01:49:15.986Z,0
2019-05-29T01:50:15.534Z,0
2019-05-29T01:51:15.405Z,0
2019-05-29T01:52:15.471Z,0
2019-05-29T01:53:15.532Z,0
2019-05-29T01:54:15.457Z,0
2019-05-29T01:55:15.714Z,0
2019-05-29T01:56:15.562Z,0
2019-05-29T01:57:15.732Z,0
2019-05-29T01:58:15.663Z,0
2019-05-29T01:59:15.720Z,0
2019-05-29T02:00:15.784Z,0
2019-05-29T02:01:15.842Z,0
2019-05-29T02:02:15.828Z,0
2019-05-29T02:03:15.842Z,0
2019-05-29T02:04:15.963Z,0
2019-05-29T02:05:16.119Z,0
2019-05-29T02:06:16.105Z,0
2019-05-29T02:07:16.094Z,0
2019-05-29T02:08:16.223Z,0
2019-05-29T02:09:16.333Z,0
2019-05-29T02:10:16.476Z,0
2019-05-29T02:11:17.082Z,0
2019-05-29T02:12:16.674Z,0
2019-05-29T02:13:17.241Z,0
2019-05-29T02:14:16.844Z,0
2019-05-29T02:15:25.784Z,0
2019-05-29T02:16:18.499Z,0
2019-05-29T02:17:17.747Z,0
2019-05-29T02:18:17.275Z,0
2019-05-29T02:19:17.739Z,0
2019-05-29T02:20:17.508Z,0
2019-05-29T02:21:17.965Z,0
2019-05-29T02:22:18.871Z,0
2019-05-29T02:23:17.867Z,0
2019-05-29T02:24:18.994Z,0
2019-05-29T02:25:19.663Z,0
2019-05-29T02:26:18.185Z,0
2019-05-29T02:27:19.239Z,0
2019-05-29T02:28:20.444Z,0
2019-05-29T02:29:18.698Z,0
2019-05-29T02:30:20.312Z,0
2019-05-29T02:31:20.031Z,0
2019-05-29T02:32:19.576Z,0
2019-05-29T02:33:19.771Z,0
2019-05-29T02:34:19.979Z,0
2019-05-29T02:35:20.295Z,1
2019-05-29T02:36:20.425Z,1
2019-05-29T02:37:20.095Z,0
2019-05-29T02:38:20.641Z,0
2019-05-29T02:39:21.097Z,1
2019-05-29T02:40:21.149Z,1
2019-05-29T02:41:21.138Z,1
2019-05-29T02:42:21.015Z,1
2019-05-29T02:43:21.302Z,1
2019-05-29T02:44:21.108Z,2
2019-05-29T02:45:21.449Z,1
2019-05-29T02:46:21.679Z,2
2019-05-29T02:47:21.547Z,2
2019-05-29T02:48:23.028Z,2
2019-05-29T02:49:21.552Z,3
2019-05-29T02:50:22.005Z,3
2019-05-29T02:51:22.042Z,4
2019-05-29T02:52:21.846Z,4
2019-05-29T02:53:22.205Z,5
2019-05-29T02:54:22.376Z,6
2019-05-29T02:55:22.520Z,6
2019-05-29T02:56:22.742Z,8
2019-05-29T02:57:22.785Z,8
2019-05-29T02:58:21.966Z,9
2019-05-29T02:59:23.411Z,11
2019-05-29T03:00:21.223Z,12
2019-05-29T03:01:21.587Z,14
2019-05-29T03:02:21.531Z,17
2019-05-29T03:03:23.712Z,18
2019-05-29T03:04:24.028Z,21
2019-05-29T03:05:23.833Z,23
2019-05-29T03:06:24.009Z,26
2019-05-29T03:07:24.244Z,29
2019-05-29T03:08:24.370Z,32
2019-05-29T03:09:24.613Z,37
2019-05-29T03:10:22.542Z,40
2019-05-29T03:11:23.040Z,45
2019-05-29T03:12:22.852Z,50
2019-05-29T03:13:23.662Z,57
2019-05-29T03:14:22.865Z,62
2019-05-29T03:15:23.492Z,69
2019-05-29T03:16:23.802Z,75
2019-05-29T03:17:23.729Z,80
2019-05-29T03:18:23.941Z,90
2019-05-29T03:19:23.787Z,97
2019-05-29T03:20:23.855Z,106
2019-05-29T03:21:23.974Z,114
2019-05-29T03:22:23.970Z,123
2019-05-29T03:23:24.178Z,133
2019-05-29T03:24:24.462Z,141
2019-05-29T03:25:24.252Z,150
2019-05-29T03:26:25.097Z,165
2019-05-29T03:27:23.671Z,174
2019-05-29T03:28:22.757Z,184
2019-05-29T03:29:23.835Z,195
2019-05-29T03:30:22.872Z,211
2019-05-29T03:31:22.901Z,223
2019-05-29T03:32:22.967Z,231
2019-05-29T03:33:24.604Z,251
2019-05-29T03:34:24.047Z,261
2019-05-29T03:35:24.071Z,277
2019-05-29T03:36:24.098Z,290
2019-05-29T03:37:24.114Z,301
2019-05-29T03:38:24.177Z,323
2019-05-29T03:39:24.251Z,334
2019-05-29T03:40:23.256Z,345
2019-05-29T03:41:24.302Z,367
2019-05-29T03:42:23.367Z,388
2019-05-29T03:43:24.454Z,390
2019-05-29T03:44:24.509Z,407
2019-05-29T03:45:24.533Z,413
2019-05-29T03:46:30.986Z,443
2019-05-29T03:47:24.622Z,446
2019-05-29T03:48:23.723Z,475
2019-05-29T03:49:24.780Z,476
2019-05-29T03:50:23.844Z,495
2019-05-29T03:51:24.879Z,512
2019-05-29T03:52:23.933Z,514
2019-05-29T03:53:24.991Z,538
2019-05-29T03:54:26.568Z,561
2019-05-29T03:55:25.056Z,558
2019-05-29T03:56:24.109Z,582
2019-05-29T03:57:24.186Z,602
2019-05-29T03:58:26.364Z,610
2019-05-29T03:59:26.690Z,626
2019-05-29T04:00:29.840Z,651
2019-05-29T04:01:26.776Z,642
2019-05-29T04:02:26.700Z,667
2019-05-29T04:03:26.913Z,701
2019-05-29T04:04:26.880Z,700
2019-05-29T04:05:26.837Z,691
2019-05-29T04:06:26.928Z,720
2019-05-29T04:07:26.812Z,742
2019-05-29T04:08:27.231Z,756
2019-05-29T04:09:24.826Z,774
2019-05-29T04:10:24.902Z,785
2019-05-29T04:11:27.366Z,788
2019-05-29T04:12:26.934Z,780
2019-05-29T04:13:27.443Z,781
2019-05-29T04:14:27.517Z,808
2019-05-29T04:15:27.492Z,816
2019-05-29T04:16:27.537Z,833
2019-05-29T04:17:27.268Z,841
2019-05-29T04:18:27.572Z,852
2019-05-29T04:19:27.740Z,859
2019-05-29T04:20:27.490Z,869
2019-05-29T04:21:27.893Z,894
2019-05-29T04:22:28.178Z,904
2019-05-29T04:23:27.762Z,910
2019-05-29T04:24:27.881Z,926
2019-05-29T04:25:30.177Z,929
2019-05-29T04:26:27.909Z,924
2019-05-29T04:27:27.836Z,937
2019-05-29T04:28:27.888Z,919
2019-05-29T04:29:28.001Z,948
2019-05-29T04:30:28.120Z,952
2019-05-29T04:31:25.774Z,955
2019-05-29T04:32:25.842Z,967
2019-05-29T04:33:25.920Z,976
2019-05-29T04:34:26.994Z,978
2019-05-29T04:35:28.264Z,988
2019-05-29T04:36:28.630Z,998
2019-05-29T04:37:28.321Z,1010
2019-05-29T04:38:28.610Z,1024
2019-05-29T04:39:28.354Z,1029
2019-05-29T04:40:28.578Z,1042
2019-05-29T04:41:28.889Z,1056
2019-05-29T04:42:29.049Z,1068
2019-05-29T04:43:28.727Z,1071
2019-05-29T04:44:28.787Z,1088
2019-05-29T04:45:28.912Z,1083
2019-05-29T04:46:27.864Z,1103
2019-05-29T04:47:28.852Z,1110
2019-05-29T04:48:29.321Z,1107
2019-05-29T04:49:29.203Z,1103
2019-05-29T04:50:29.109Z,1093
2019-05-29T04:51:29.073Z,1086
2019-05-29T04:52:28.955Z,1089
2019-05-29T04:53:29.397Z,1074
2019-05-29T04:54:29.255Z,1089
2019-05-29T04:55:28.607Z,1119
2019-05-29T04:56:28.815Z,1129
2019-05-29T04:57:29.141Z,1135
2019-05-29T04:58:28.978Z,1152
2019-05-29T04:59:28.786Z,1158
2019-05-29T05:00:29.004Z,1167
2019-05-29T05:01:28.982Z,1174
2019-05-29T05:02:28.881Z,1173
2019-05-29T05:03:29.058Z,1174
2019-05-29T05:04:29.101Z,1178
2019-05-29T05:05:29.102Z,1180
2019-05-29T05:06:29.095Z,1194
2019-05-29T05:07:29.644Z,1184
2019-05-29T05:08:29.167Z,1194
2019-05-29T05:09:29.220Z,1204
2019-05-29T05:10:29.220Z,1217
2019-05-29T05:11:29.340Z,1231
2019-05-29T05:12:29.574Z,1246
2019-05-29T05:13:29.453Z,1267
2019-05-29T05:14:29.569Z,1265
2019-05-29T05:15:29.567Z,1258
2019-05-29T05:16:29.696Z,1232
2019-05-29T05:17:29.659Z,1228
2019-05-29T05:18:29.731Z,1218
2019-05-29T05:19:29.695Z,1234
2019-05-29T05:20:29.925Z,1251
2019-05-29T05:21:29.878Z,1252
2019-05-29T05:22:30.017Z,1244
2019-05-29T05:23:30.114Z,1265
2019-05-29T05:24:30.177Z,1280
2019-05-29T05:25:30.039Z,1302
2019-05-29T05:26:30.075Z,1298
2019-05-29T05:27:30.126Z,1332
2019-05-29T05:28:30.351Z,1343
2019-05-29T05:29:30.227Z,1339
2019-05-29T05:30:30.471Z,1330
2019-05-29T05:31:30.539Z,1335
2019-05-29T05:32:30.641Z,1338
2019-05-29T05:33:30.769Z,1329
2019-05-29T05:34:30.859Z,1336
2019-05-29T05:35:30.943Z,1344
2019-05-29T05:36:31.078Z,1351
2019-05-29T05:37:31.183Z,1352
2019-05-29T05:38:31.273Z,1350
2019-05-29T05:39:32.741Z,1357
2019-05-29T05:40:32.633Z,1361
2019-05-29T05:41:32.775Z,1362
2019-05-29T05:42:32.737Z,1375
2019-05-29T05:43:32.875Z,1376
2019-05-29T05:44:32.744Z,1381
2019-05-29T05:45:33.018Z,1393
2019-05-29T05:46:32.922Z,1413
2019-05-29T05:47:44.692Z,1434
2019-05-29T05:48:32.972Z,1443
2019-05-29T05:49:33.264Z,1447
2019-05-29T05:50:33.278Z,1444
2019-05-29T05:51:33.518Z,1442
2019-05-29T05:52:33.659Z,1449
2019-05-29T05:53:33.341Z,1440
2019-05-29T05:54:33.346Z,1427
2019-05-29T05:55:33.460Z,1440
2019-05-29T05:56:33.649Z,1430
2019-05-29T05:57:33.503Z,1448
2019-05-29T05:58:33.746Z,1467
2019-05-29T05:59:33.575Z,1464
2019-05-29T06:00:33.921Z,1481
2019-05-29T06:01:33.765Z,1465
2019-05-29T06:02:33.724Z,1483
2019-05-29T06:03:33.921Z,1488
2019-05-29T06:04:33.788Z,1517
2019-05-29T06:05:33.942Z,1519
2019-05-29T06:06:33.900Z,2152
2019-05-29T06:07:34.081Z,3653
2019-05-29T06:08:34.019Z,7077
2019-05-29T06:09:34.139Z,16696
2019-05-29T06:10:34.023Z,22664
2019-05-29T06:11:34.152Z,25560
2019-05-29T06:12:34.401Z,29568
2019-05-29T06:13:34.588Z,33752
2019-05-29T06:14:34.339Z,25400
2019-05-29T06:15:34.285Z,6976
2019-05-29T06:16:34.727Z,1613
2019-05-29T06:17:34.411Z,1550
2019-05-29T06:18:34.906Z,1552
2019-05-29T06:19:34.925Z,1574
2019-05-29T06:20:34.680Z,1589
2019-05-29T06:21:34.605Z,1576
2019-05-29T06:22:34.861Z,1600
2019-05-29T06:23:35.398Z,1586
2019-05-29T06:24:34.968Z,1596
2019-05-29T06:25:36.793Z,1626
2019-05-29T06:26:35.560Z,1612
2019-05-29T06:27:35.137Z,1611
2019-05-29T06:28:35.013Z,1612
2019-05-29T06:29:35.198Z,1623
2019-05-29T06:30:36.486Z,1617
2019-05-29T06:31:35.859Z,1619
2019-05-29T06:32:35.324Z,1632
2019-05-29T06:33:35.295Z,1631
2019-05-29T06:34:35.647Z,1639
2019-05-29T06:35:35.826Z,1668
2019-05-29T06:36:35.537Z,1688
2019-05-29T06:37:35.530Z,1691
2019-05-29T06:38:35.620Z,1706
2019-05-29T06:39:35.615Z,1714
2019-05-29T06:40:36.227Z,1713
2019-05-29T06:41:35.599Z,1711
2019-05-29T06:42:35.683Z,1712
2019-05-29T06:43:35.715Z,1700
2019-05-29T06:44:36.571Z,1695
2019-05-29T06:45:36.473Z,1667
2019-05-29T06:46:36.138Z,2550
2019-05-29T06:47:36.961Z,4700
2019-05-29T06:48:44.497Z,5134
2019-05-29T06:49:37.944Z,3840
2019-05-29T06:50:37.401Z,1796
2019-05-29T06:51:36.918Z,1807
2019-05-29T06:52:37.027Z,1858
2019-05-29T06:53:37.608Z,1900
2019-05-29T06:54:36.165Z,1910
2019-05-29T06:55:36.164Z,1903
2019-05-29T06:56:37.609Z,1890
2019-05-29T06:57:37.977Z,1900
2019-05-29T06:58:37.938Z,1914
2019-05-29T06:59:38.133Z,1944
2019-05-29T07:00:37.873Z,1928
2019-05-29T07:01:37.358Z,1947
2019-05-29T07:02:36.870Z,1938
2019-05-29T07:03:37.586Z,1994
2019-05-29T07:04:36.905Z,2034
2019-05-29T07:05:37.962Z,2022
2019-05-29T07:06:38.536Z,2237
2019-05-29T07:07:38.195Z,2167
2019-05-29T07:08:43.139Z,2140
2019-05-29T07:09:38.825Z,2014
2019-05-29T07:10:38.473Z,2011
2019-05-29T07:11:37.276Z,2027
2019-05-29T07:12:38.312Z,2041
2019-05-29T07:13:39.881Z,2148
2019-05-29T07:14:38.575Z,2223
2019-05-29T07:15:38.550Z,2201
2019-05-29T07:16:45.039Z,2346
2019-05-29T07:17:38.836Z,2717
2019-05-29T07:18:38.538Z,2528
2019-05-29T07:19:48.688Z,2358
2019-05-29T07:20:39.116Z,2425
2019-05-29T07:21:38.768Z,2836
2019-05-29T07:22:38.846Z,4763
2019-05-29T07:23:38.757Z,2697
2019-05-29T07:24:39.376Z,9473
2019-05-29T07:25:38.737Z,35288
2019-05-29T07:26:38.888Z,43168
2019-05-29T07:27:38.792Z,40816
2019-05-29T07:28:46.723Z,41664
2019-05-29T07:29:41.024Z,51064
2019-05-29T07:30:39.273Z,56936
2019-05-29T07:31:40.630Z,56752
2019-05-29T07:32:40.575Z,54176
2019-05-29T07:33:40.787Z,48912
2019-05-29T07:34:50.971Z,48120
2019-05-29T07:35:41.319Z,51400
2019-05-29T07:36:39.868Z,56040
2019-05-29T07:37:41.617Z,60384
2019-05-29T07:38:39.680Z,62520
2019-05-29T07:39:41.432Z,60256
2019-05-29T07:40:40.616Z,52424
2019-05-29T07:41:41.634Z,45680
2019-05-29T07:42:44.513Z,44344
2019-05-29T07:43:41.757Z,51776
2019-05-29T07:44:40.130Z,64856
2019-05-29T07:45:40.563Z,65535
2019-05-29T07:46:40.181Z,65535
2019-05-29T07:47:40.534Z,65535
2019-05-29T07:48:40.495Z,65535
2019-05-29T07:49:44.431Z,56728
2019-05-29T07:50:40.536Z,50616
2019-05-29T07:51:40.670Z,51968
2019-05-29T07:52:40.921Z,58760
2019-05-29T07:53:40.578Z,63336
2019-05-29T07:54:41.568Z,63088
2019-05-29T07:55:42.562Z,62744
2019-05-29T07:56:40.722Z,17688
2019-05-29T07:57:40.963Z,63536
2019-05-29T07:58:43.043Z,65535
2019-05-29T07:59:42.654Z,65535
2019-05-29T08:01:00.762Z,65535
2019-05-29T08:01:42.772Z,65535
2019-05-29T08:02:41.373Z,65535
2019-05-29T08:03:41.248Z,65535
2019-05-29T08:04:41.076Z,65535
2019-05-29T08:05:42.276Z,65535
2019-05-29T08:06:48.142Z,65535
2019-05-29T08:07:43.368Z,65535
2019-05-29T08:08:41.381Z,65535
2019-05-29T08:09:41.471Z,63416
2019-05-29T08:10:41.742Z,54800
2019-05-29T08:11:41.554Z,54096
2019-05-29T08:12:45.839Z,63864
2019-05-29T08:13:43.579Z,65535
2019-05-29T08:14:41.889Z,65535
2019-05-29T08:15:53.825Z,65535
2019-05-29T08:16:43.905Z,65535
2019-05-29T08:17:42.101Z,65535
2019-05-29T08:18:46.047Z,65535
2019-05-29T08:19:59.128Z,65535
2019-05-29T08:20:43.958Z,65535
2019-05-29T08:21:42.664Z,53560
2019-05-29T08:22:42.405Z,37904
2019-05-29T08:23:42.332Z,29576
2019-05-29T08:24:42.643Z,51728
2019-05-29T08:25:43.405Z,49328
2019-05-29T08:26:44.674Z,34720
2019-05-29T08:27:42.700Z,14664
2019-05-29T08:28:42.832Z,6152
2019-05-29T08:29:42.648Z,32136
2019-05-29T08:30:48.076Z,45424
2019-05-29T08:31:44.708Z,56216
2019-05-29T08:32:43.503Z,65535
2019-05-29T08:33:42.919Z,65535
2019-05-29T08:34:43.076Z,65535
2019-05-29T08:35:43.142Z,61536
2019-05-29T08:36:59.671Z,50184
2019-05-29T08:37:44.944Z,53448
2019-05-29T08:38:44.445Z,44608
2019-05-29T08:39:43.381Z,21368
2019-05-29T08:40:43.206Z,6917
2019-05-29T08:41:47.463Z,15529
2019-05-29T08:42:45.203Z,6551
2019-05-29T08:43:45.142Z,3564
2019-05-29T08:44:45.387Z,3364
2019-05-29T08:45:43.749Z,4227
2019-05-29T08:47:01.194Z,4285
2019-05-29T08:47:45.581Z,5671
2019-05-29T08:48:43.776Z,4122
2019-05-29T08:49:47.168Z,3597
2019-05-29T08:50:45.668Z,3444
2019-05-29T08:51:44.065Z,3406
2019-05-29T08:52:44.072Z,18833
2019-05-29T08:53:44.201Z,25680
2019-05-29T08:54:45.985Z,18776
2019-05-29T08:55:44.310Z,16042
2019-05-29T08:56:44.386Z,11646
2019-05-29T08:57:44.352Z,7227
2019-05-29T08:58:44.438Z,4082
2019-05-29T08:59:44.472Z,4014
2019-05-29T09:00:47.117Z,4053
2019-05-29T09:01:47.399Z,3893
2019-05-29T09:02:46.588Z,3522
2019-05-29T09:03:44.901Z,6477
2019-05-29T09:04:44.744Z,5137
2019-05-29T09:05:46.647Z,9247
2019-05-29T09:06:46.935Z,14772
2019-05-29T09:07:46.307Z,12057
2019-05-29T09:08:46.726Z,43600
2019-05-29T09:09:45.203Z,35064
2019-05-29T09:10:45.412Z,24432
2019-05-29T09:11:47.499Z,14775
2019-05-29T09:12:51.481Z,9083
2019-05-29T09:13:46.361Z,17659
2019-05-29T09:14:45.363Z,16736
2019-05-29T09:15:45.365Z,9527
2019-05-29T09:16:45.382Z,7775
2019-05-29T09:17:45.457Z,6641
2019-05-29T09:18:45.454Z,8384
2019-05-29T09:19:45.451Z,6369
2019-05-29T09:21:01.498Z,5695
2019-05-29T09:21:46.636Z,6292
2019-05-29T09:22:45.695Z,3794
2019-05-29T09:23:45.758Z,3528
2019-05-29T09:24:45.747Z,2178
2019-05-29T09:25:45.928Z,7366
2019-05-29T09:26:46.585Z,3707
2019-05-29T09:27:45.935Z,4815
2019-05-29T09:28:45.975Z,6362
2019-05-29T09:29:45.969Z,6224
2019-05-29T09:30:45.973Z,3756
2019-05-29T09:31:45.975Z,7101
2019-05-29T09:32:50.733Z,5236
2019-05-29T09:33:45.973Z,32808
2019-05-29T09:34:47.659Z,29976
2019-05-29T09:35:46.134Z,27920
2019-05-29T09:36:46.168Z,20920
2019-05-29T09:37:47.237Z,4096
2019-05-29T09:38:46.314Z,3467
2019-05-29T09:39:46.318Z,3485
2019-05-29T09:40:46.340Z,3505
2019-05-29T09:41:46.327Z,3508
2019-05-29T09:42:46.328Z,3590
2019-05-29T09:43:57.992Z,3845
2019-05-29T09:44:47.527Z,3692
2019-05-29T09:45:46.540Z,3744
2019-05-29T09:46:46.538Z,3795
2019-05-29T09:47:46.583Z,4064
2019-05-29T09:48:49.446Z,4364
2019-05-29T09:49:46.688Z,13004
2019-05-29T09:50:50.364Z,11961
2019-05-29T09:51:46.833Z,3495
2019-05-29T09:52:47.995Z,3933
2019-05-29T09:53:48.224Z,10691
2019-05-29T09:54:48.189Z,4138
2019-05-29T09:55:47.189Z,4369
2019-05-29T09:56:48.377Z,4241
2019-05-29T09:57:48.360Z,4287
2019-05-29T09:58:47.361Z,4342
2019-05-29T09:59:48.342Z,4367
2019-05-29T10:01:04.903Z,4319
2019-05-29T10:01:48.608Z,4710
2019-05-29T10:02:48.751Z,4764
2019-05-29T10:03:47.894Z,4754
2019-05-29T10:04:48.771Z,4695
2019-05-29T10:05:48.915Z,4493
2019-05-29T10:06:47.951Z,4606
2019-05-29T10:07:48.950Z,4834
2019-05-29T10:08:47.993Z,13772
2019-05-29T10:09:48.959Z,16558
2019-05-29T10:10:49.118Z,9969
2019-05-29T10:11:49.136Z,6889
2019-05-29T10:12:49.265Z,8785
2019-05-29T10:13:48.440Z,28608
2019-05-29T10:14:51.355Z,7136
2019-05-29T10:15:49.585Z,4207
2019-05-29T10:16:49.734Z,8493
2019-05-29T10:17:49.890Z,7253
2019-05-29T10:18:49.017Z,4933
2019-05-29T10:19:50.065Z,15695
2019-05-29T10:20:49.220Z,65535
2019-05-29T10:21:50.240Z,65535
2019-05-29T10:22:50.243Z,65535
2019-05-29T10:23:49.249Z,65535
2019-05-29T10:24:50.267Z,65535
2019-05-29T10:25:50.417Z,65535
2019-05-29T10:26:50.465Z,65535
2019-05-29T10:27:50.623Z,65535
2019-05-29T10:29:02.764Z,65535
2019-05-29T10:29:52.507Z,65535
2019-05-29T10:30:50.204Z,65535
2019-05-29T10:31:51.054Z,65535
2019-05-29T10:32:50.149Z,65535
2019-05-29T10:33:50.264Z,65535
2019-05-29T10:34:50.570Z,65535
2019-05-29T10:35:53.295Z,65535
2019-05-29T10:36:52.983Z,65535
2019-05-29T10:37:50.668Z,65535
2019-05-29T10:38:50.741Z,65535
2019-05-29T10:39:50.949Z,65535
2019-05-29T10:41:00.002Z,65535
2019-05-29T10:41:51.444Z,65535
2019-05-29T10:42:51.451Z,65535
2019-05-29T10:43:51.283Z,65535
2019-05-29T10:44:51.247Z,65535
2019-05-29T10:45:52.041Z,65535
2019-05-29T10:46:52.331Z,65535
2019-05-29T10:47:52.256Z,65535
2019-05-29T10:48:53.872Z,65535
2019-05-29T10:49:51.757Z,65535
2019-05-29T10:50:53.411Z,65535
2019-05-29T10:52:05.309Z,65535
2019-05-29T10:52:52.142Z,65535
2019-05-29T10:53:52.997Z,65535
2019-05-29T10:54:52.407Z,65535
2019-05-29T10:55:52.661Z,65535
2019-05-29T10:56:52.919Z,65535
2019-05-29T10:57:53.051Z,65535
2019-05-29T10:58:56.034Z,65535
2019-05-29T10:59:52.859Z,65535
2019-05-29T11:00:53.309Z,65535
2019-05-29T11:01:52.432Z,65535
2019-05-29T11:02:53.406Z,65535
2019-05-29T11:03:52.597Z,65535
2019-05-29T11:04:55.359Z,60944
2019-05-29T11:05:53.663Z,55136
2019-05-29T11:06:54.742Z,57624
2019-05-29T11:07:52.349Z,65535
2019-05-29T11:08:52.394Z,65535
2019-05-29T11:09:52.560Z,65535
2019-05-29T11:10:52.551Z,65535
2019-05-29T11:11:53.218Z,65535
2019-05-29T11:12:52.771Z,65535
2019-05-29T11:13:52.867Z,65535
2019-05-29T11:14:52.916Z,65535
2019-05-29T11:15:52.842Z,65535
2019-05-29T11:16:53.370Z,65535
2019-05-29T11:17:53.207Z,65535
2019-05-29T11:18:53.359Z,65535
2019-05-29T11:19:53.475Z,65535
2019-05-29T11:20:53.429Z,65535
2019-05-29T11:21:53.923Z,65535
2019-05-29T11:22:53.637Z,65535
2019-05-29T11:23:53.833Z,65535
2019-05-29T11:24:54.072Z,65535
2019-05-29T11:25:53.977Z,65535
2019-05-29T11:26:54.574Z,65535
2019-05-29T11:27:54.495Z,65535
2019-05-29T11:28:54.422Z,65535
2019-05-29T11:29:55.066Z,65535
2019-05-29T11:30:54.140Z,65535
2019-05-29T11:31:55.003Z,65535
2019-05-29T11:32:55.535Z,65535
2019-05-29T11:33:54.877Z,65535
2019-05-29T11:34:54.201Z,65535
2019-05-29T11:36:00.473Z,65535
2019-05-29T11:36:54.216Z,56376
2019-05-29T11:37:54.615Z,46064
2019-05-29T11:38:54.543Z,41736
2019-05-29T11:39:54.857Z,46000
2019-05-29T11:41:19.249Z,58032
2019-05-29T11:41:54.732Z,65535
2019-05-29T11:42:54.779Z,65535
2019-05-29T11:43:55.119Z,65535
2019-05-29T11:44:55.236Z,65535
2019-05-29T11:45:55.305Z,65535
2019-05-29T11:46:54.411Z,65535
2019-05-29T11:47:56.766Z,65535
2019-05-29T11:48:55.565Z,16488
2019-05-29T11:49:55.122Z,32728
2019-05-29T11:50:56.170Z,61392
2019-05-29T11:52:14.595Z,57672
2019-05-29T11:52:56.412Z,56216
2019-05-29T11:53:55.406Z,63272
2019-05-29T11:54:57.929Z,65535
2019-05-29T11:55:56.081Z,65535
2019-05-29T11:56:55.456Z,55984
2019-05-29T11:57:55.831Z,65535
2019-05-29T11:58:55.066Z,65535
2019-05-29T11:59:55.809Z,65535
2019-05-29T12:00:57.132Z,65535
2019-05-29T12:01:56.949Z,65535
2019-05-29T12:02:55.801Z,65535
2019-05-29T12:04:17.903Z,65535
2019-05-29T12:04:57.205Z,65535
2019-05-29T12:05:55.623Z,61840
2019-05-29T12:06:55.647Z,55336
2019-05-29T12:07:55.658Z,54968
2019-05-29T12:08:55.849Z,65432
2019-05-29T12:09:55.664Z,65535
2019-05-29T12:10:57.350Z,65535
2019-05-29T12:11:57.929Z,65535
2019-05-29T12:12:56.037Z,65535
2019-05-29T12:13:56.155Z,62672
2019-05-29T12:15:04.600Z,65535
2019-05-29T12:15:57.709Z,65535
2019-05-29T12:16:56.180Z,65535
2019-05-29T12:18:11.983Z,65535
2019-05-29T12:18:56.164Z,65535
2019-05-29T12:19:56.193Z,65535
2019-05-29T12:20:56.318Z,65535
2019-05-29T12:21:56.495Z,65535
2019-05-29T12:23:18.162Z,65535
2019-05-29T12:23:56.243Z,65535
2019-05-29T12:24:56.592Z,65535
2019-05-29T12:26:15.829Z,65535
2019-05-29T12:26:56.506Z,65535
2019-05-29T12:27:57.318Z,65535
2019-05-29T12:29:04.452Z,65535
2019-05-29T12:29:56.721Z,65535
2019-05-29T12:30:56.956Z,65535
2019-05-29T12:31:58.860Z,65535
2019-05-29T12:32:56.854Z,65535
2019-05-29T12:33:59.888Z,65535
2019-05-29T12:34:58.526Z,65535
2019-05-29T12:35:57.004Z,65535
2019-05-29T12:36:57.337Z,65535
2019-05-29T12:37:57.327Z,65535
2019-05-29T12:38:57.770Z,65535
2019-05-29T12:39:57.402Z,65535
2019-05-29T12:40:57.610Z,65535
2019-05-29T12:41:57.522Z,65535
2019-05-29T12:42:57.549Z,65535
2019-05-29T12:43:57.583Z,65535
2019-05-29T12:44:57.636Z,65535
2019-05-29T12:45:57.765Z,65535
2019-05-29T12:46:57.732Z,65535
2019-05-29T12:47:58.145Z,65535
2019-05-29T12:48:59.503Z,65535
2019-05-29T12:49:57.681Z,65535
2019-05-29T12:50:58.213Z,65535
2019-05-29T12:51:57.703Z,65535
2019-05-29T12:52:59.673Z,65535
2019-05-29T12:53:57.988Z,65535
2019-05-29T12:54:57.991Z,65535
2019-05-29T12:55:58.301Z,65535
2019-05-29T12:56:57.870Z,65535
2019-05-29T12:57:58.051Z,65535
2019-05-29T12:58:58.283Z,65535
2019-05-29T12:59:58.021Z,65535
2019-05-29T13:00:58.490Z,65535
2019-05-29T13:01:58.397Z,65535
2019-05-29T13:02:58.672Z,65535
2019-05-29T13:03:58.606Z,65535
2019-05-29T13:05:12.503Z,65535
2019-05-29T13:06:00.279Z,65535
2019-05-29T13:06:58.598Z,65535
2019-05-29T13:07:58.778Z,63784
2019-05-29T13:08:58.514Z,64392
2019-05-29T13:09:58.878Z,65535
2019-05-29T13:10:58.368Z,65535
2019-05-29T13:11:58.536Z,65535
2019-05-29T13:13:03.825Z,65535
2019-05-29T13:14:00.527Z,65535
2019-05-29T13:14:58.642Z,65535
2019-05-29T13:15:58.795Z,65535
2019-05-29T13:16:58.780Z,65535
2019-05-29T13:18:03.925Z,65535
2019-05-29T13:19:00.912Z,65535
2019-05-29T13:20:05.451Z,65535
2019-05-29T13:21:00.881Z,65535
2019-05-29T13:21:59.240Z,65535
2019-05-29T13:22:59.855Z,65535
2019-05-29T13:24:01.916Z,65535
2019-05-29T13:25:01.223Z,60760
2019-05-29T13:26:01.189Z,61456
2019-05-29T13:26:59.663Z,65535
2019-05-29T13:27:59.912Z,65535
2019-05-29T13:28:59.752Z,65535
2019-05-29T13:30:01.485Z,65535
2019-05-29T13:30:59.806Z,65535